Time,TemperatureF,DewpointF,PressureIn,WindDirection,WindDirectionDegrees,WindSpeedMPH,WindSpeedGustMPH,Humidity,HourlyPrecipIn,Conditions,Clouds,dailyrainin,SolarRadiationWatts/m^2,SoftwareType,DateUTC
2013-09-06 00:11:00,60.0,49.0,-100.00,WSW,248,0.0,4.0,66,0.00,,,0.00,1.000000,,2013-09-06 06:11:00,
2013-09-06 00:21:00,60.0,49.0,-100.00,WSW,248,0.0,4.0,66,0.00,,,0.00,1.000000,,2013-09-06 06:21:00,
2013-09-06 00:32:00,60.0,49.0,-100.00,WSW,248,0.0,4.0,66,0.00,,,0.00,1.000000,,2013-09-06 06:32:00,
2013-09-06 01:11:00,58.0,48.0,-100.00,East,87,0.0,0.0,69,0.00,,,0.00,1.000000,,2013-09-06 07:11:00,
2013-09-06 01:23:00,58.0,48.0,-100.00,East,87,0.0,0.0,69,0.00,,,0.00,1.000000,,2013-09-06 07:23:00,
2013-09-06 01:32:00,58.0,48.0,-100.00,East,87,0.0,0.0,69,0.00,,,0.00,1.000000,,2013-09-06 07:32:00,
2013-09-06 02:12:00,58.0,48.0,-100.00,East,81,0.0,0.0,69,0.00,,,0.00,1.000000,,2013-09-06 08:12:00,
2013-09-06 02:22:00,58.0,48.0,-100.00,East,81,0.0,0.0,69,0.00,,,0.00,1.000000,,2013-09-06 08:22:00,
2013-09-06 02:32:00,58.0,48.0,-100.00,East,81,0.0,0.0,69,0.00,,,0.00,1.000000,,2013-09-06 08:32:00,
2013-09-06 03:11:00,57.0,48.0,-100.00,ESE,106,0.0,0.0,71,0.00,,,0.00,1.000000,,2013-09-06 09:11:00,
2013-09-06 03:22:00,57.0,48.0,-100.00,ESE,106,0.0,0.0,71,0.00,,,0.00,1.000000,,2013-09-06 09:22:00,
2013-09-06 03:33:00,57.0,48.0,-100.00,ESE,106,0.0,0.0,71,0.00,,,0.00,1.000000,,2013-09-06 09:33:00,
2013-09-06 04:12:00,57.0,48.0,-100.00,NNE,32,0.0,0.0,72,0.00,,,0.00,1.000000,,2013-09-06 10:12:00,
2013-09-06 04:23:00,57.0,48.0,-100.00,NNE,32,0.0,0.0,72,0.00,,,0.00,1.000000,,2013-09-06 10:23:00,
2013-09-06 04:32:00,57.0,48.0,-100.00,NNE,32,0.0,0.0,72,0.00,,,0.00,1.000000,,2013-09-06 10:32:00,
2013-09-06 05:11:00,56.0,48.0,-100.00,East,82,0.0,3.0,74,0.00,,,0.00,1.000000,,2013-09-06 11:11:00,
2013-09-06 05:22:00,56.0,48.0,-100.00,East,82,0.0,3.0,74,0.00,,,0.00,1.000000,,2013-09-06 11:22:00,
2013-09-06 05:33:00,56.0,48.0,-100.00,East,82,0.0,3.0,74,0.00,,,0.00,1.000000,,2013-09-06 11:33:00,
2013-09-06 06:12:00,56.0,48.0,-100.00,NE,55,2.0,3.0,75,0.00,,,0.00,1.000000,,2013-09-06 12:12:00,
2013-09-06 06:21:00,56.0,48.0,-100.00,NE,55,2.0,3.0,75,0.00,,,0.00,1.000000,,2013-09-06 12:21:00,
2013-09-06 06:32:00,56.0,48.0,-100.00,NE,55,2.0,3.0,75,0.00,,,0.00,1.000000,,2013-09-06 12:32:00,
2013-09-06 07:11:00,55.0,48.0,-100.00,ENE,74,4.0,4.0,77,0.00,,,0.00,1.000000,,2013-09-06 13:11:00,
2013-09-06 07:22:00,55.0,48.0,-100.00,ENE,74,4.0,4.0,77,0.00,,,0.00,1.000000,,2013-09-06 13:22:00,
2013-09-06 07:32:00,55.0,48.0,-100.00,ENE,74,4.0,4.0,77,0.00,,,0.00,1.000000,,2013-09-06 13:32:00,
2013-09-06 08:11:00,56.0,49.0,-100.00,East,80,3.0,5.0,76,0.00,,,0.00,9.000000,,2013-09-06 14:11:00,
2013-09-06 08:22:00,56.0,49.0,-100.00,East,80,3.0,5.0,76,0.00,,,0.00,9.000000,,2013-09-06 14:22:00,
2013-09-06 08:32:00,56.0,49.0,-100.00,East,80,3.0,5.0,76,0.00,,,0.00,9.000000,,2013-09-06 14:32:00,
2013-09-06 10:13:00,76.0,48.0,-100.00,East,100,5.0,7.0,37,0.00,,,0.00,332.000000,,2013-09-06 16:13:00,
2013-09-06 10:24:00,76.0,48.0,-100.00,East,100,5.0,7.0,37,0.00,,,0.00,332.000000,,2013-09-06 16:24:00,
2013-09-06 10:33:00,76.0,48.0,-100.00,East,100,5.0,7.0,37,0.00,,,0.00,332.000000,,2013-09-06 16:33:00,
2013-09-06 11:13:00,79.0,47.0,-100.00,East,99,4.0,7.0,33,0.00,,,0.00,540.000000,,2013-09-06 17:13:00,
2013-09-06 11:24:00,79.0,47.0,-100.00,East,99,4.0,7.0,33,0.00,,,0.00,540.000000,,2013-09-06 17:24:00,
2013-09-06 11:34:00,79.0,47.0,-100.00,East,99,4.0,7.0,33,0.00,,,0.00,540.000000,,2013-09-06 17:34:00,
2013-09-06 12:12:00,81.0,44.0,-100.00,East,89,4.0,10.0,27,0.00,,,0.00,725.000000,,2013-09-06 18:12:00,
2013-09-06 12:22:00,81.0,44.0,-100.00,East,89,4.0,10.0,27,0.00,,,0.00,725.000000,,2013-09-06 18:22:00,
2013-09-06 12:32:00,81.0,44.0,-100.00,East,89,4.0,10.0,27,0.00,,,0.00,725.000000,,2013-09-06 18:32:00,
2013-09-06 13:12:00,84.0,37.0,-100.00,SSE,152,4.0,13.0,19,0.00,,,0.00,902.000000,,2013-09-06 19:12:00,
2013-09-06 14:11:00,82.0,37.0,-100.00,SSW,210,3.0,13.0,20,0.00,,,0.00,829.000000,,2013-09-06 20:11:00,
2013-09-06 14:23:00,82.0,37.0,-100.00,SSW,210,3.0,13.0,20,0.00,,,0.00,829.000000,,2013-09-06 20:23:00,
2013-09-06 14:32:00,82.0,37.0,-100.00,SSW,210,3.0,13.0,20,0.00,,,0.00,829.000000,,2013-09-06 20:32:00,
2013-09-06 15:12:00,76.0,43.0,-100.00,ESE,112,9.0,17.0,31,0.00,,,0.00,229.000000,,2013-09-06 21:12:00,
2013-09-06 15:22:00,76.0,43.0,-100.00,ESE,112,9.0,17.0,31,0.00,,,0.00,229.000000,,2013-09-06 21:22:00,
2013-09-06 15:34:00,76.0,43.0,-100.00,ESE,112,9.0,17.0,31,0.00,,,0.00,229.000000,,2013-09-06 21:34:00,
2013-09-06 16:13:00,81.0,45.0,-100.00,East,79,6.0,16.0,28,0.00,,,0.00,638.000000,,2013-09-06 22:13:00,
2013-09-06 16:23:00,81.0,45.0,-100.00,East,79,6.0,16.0,28,0.00,,,0.00,638.000000,,2013-09-06 22:23:00,
2013-09-06 16:32:00,81.0,45.0,-100.00,East,79,6.0,16.0,28,0.00,,,0.00,638.000000,,2013-09-06 22:32:00,
2013-09-06 17:12:00,83.0,42.0,-100.00,East,81,3.0,9.0,24,0.00,,,0.00,717.000000,,2013-09-06 23:12:00,
2013-09-06 17:23:00,83.0,42.0,-100.00,East,81,3.0,9.0,24,0.00,,,0.00,717.000000,,2013-09-06 23:23:00,
2013-09-06 17:33:00,83.0,42.0,-100.00,East,81,3.0,9.0,24,0.00,,,0.00,717.000000,,2013-09-06 23:33:00,
2013-09-06 18:12:00,83.0,40.0,-100.00,North,360,3.0,10.0,22,0.00,,,0.00,595.000000,,2013-09-07 00:12:00,
2013-09-06 18:22:00,83.0,40.0,-100.00,North,360,3.0,10.0,22,0.00,,,0.00,595.000000,,2013-09-07 00:22:00,
2013-09-06 18:32:00,83.0,40.0,-100.00,North,360,3.0,10.0,22,0.00,,,0.00,595.000000,,2013-09-07 00:32:00,
2013-09-06 19:12:00,69.0,46.0,-100.00,SW,228,7.0,19.0,44,0.00,,,0.00,65.000000,,2013-09-07 01:12:00,
2013-09-06 19:21:00,69.0,46.0,-100.00,SW,228,7.0,19.0,44,0.00,,,0.00,65.000000,,2013-09-07 01:21:00,
2013-09-06 19:32:00,69.0,46.0,-100.00,SW,228,7.0,19.0,44,0.00,,,0.00,65.000000,,2013-09-07 01:32:00,
2013-09-06 20:12:00,67.0,46.0,-100.00,SSW,203,1.0,11.0,46,0.00,,,0.00,21.000000,,2013-09-07 02:12:00,
2013-09-06 20:23:00,67.0,46.0,-100.00,SSW,203,1.0,11.0,46,0.00,,,0.00,21.000000,,2013-09-07 02:23:00,
2013-09-06 20:32:00,67.0,46.0,-100.00,SSW,203,1.0,11.0,46,0.00,,,0.00,21.000000,,2013-09-07 02:32:00,
2013-09-06 21:11:00,65.0,45.0,-100.00,ENE,73,1.0,3.0,48,0.00,,,0.00,2.000000,,2013-09-07 03:11:00,
2013-09-06 21:23:00,65.0,45.0,-100.00,ENE,73,1.0,3.0,48,0.00,,,0.00,2.000000,,2013-09-07 03:23:00,
2013-09-06 21:34:00,65.0,45.0,-100.00,ENE,73,1.0,3.0,48,0.00,,,0.00,2.000000,,2013-09-07 03:34:00,
2013-09-06 22:14:00,64.0,44.0,-100.00,East,86,3.0,3.0,49,0.00,,,0.00,1.000000,,2013-09-07 04:14:00,
2013-09-06 22:23:00,64.0,44.0,-100.00,East,86,3.0,3.0,49,0.00,,,0.00,1.000000,,2013-09-07 04:23:00,
2013-09-06 22:34:00,64.0,44.0,-100.00,East,86,3.0,3.0,49,0.00,,,0.00,1.000000,,2013-09-07 04:34:00,
2013-09-06 23:13:00,63.0,45.0,-100.00,WSW,257,0.0,6.0,52,0.00,,,0.00,1.000000,,2013-09-07 05:13:00,
2013-09-06 23:23:00,63.0,45.0,-100.00,WSW,257,0.0,6.0,52,0.00,,,0.00,1.000000,,2013-09-07 05:23:00,
2013-09-06 23:33:00,63.0,45.0,-100.00,WSW,257,0.0,6.0,52,0.00,,,0.00,1.000000,,2013-09-07 05:33:00,